• Join FlightAware (Why Join?)
  • Login
  • US Flag 
03:37PM EDT


 

Airport Tracker/Info


-or-


 

Live Flight TrackerFlight Track Log ✈ DAL6196 ✈ 29-Apr-2013 ✈ KRDU - KLGA

Flight Track Log - Related Links

Times and Time Zones

All times are in EDT time to prevent confusion due to time zone crossing. See the DAL6196 flight status page for this flight to view local times or setup timezone preferences in your user account.

Time Position Orientation Groundspeed Altitude Reporting Facility
EDT Latitude Longitude Course Direction KTS MPH feet Rate Location/Type
01:17PM 35.8644 -78.8164 266° West 169 194 1,400  Level Washington Center
01:18PM 35.8603 -78.8931 266° West 214 246 4,600 2,160 Climbing Washington Center
01:19PM 35.9117 -78.9208 336° Northwest 276 318 6,200 2,340 Climbing Washington Center
01:20PM 35.9842 -78.9342 352° North 273 314 8,800 2,520 Climbing Washington Center
01:21PM 36.0425 -78.8622 45° Northeast 257 296 11,400 2,220 Climbing Washington Center
01:22PM 36.0931 -78.7639 58° Northeast 274 315 13,300 1,500 Climbing Washington Center
01:23PM 36.1439 -78.6581 59° Northeast 334 384 14,400 960 Climbing Washington Center
01:24PM 36.1986 -78.5572 56° Northeast 368 423 15,300 960 Climbing Washington Center
01:25PM 36.2708 -78.4233 56° Northeast 409 471 16,400 1,200 Climbing Washington Center
01:26PM 36.3542 -78.3411 38° Northeast 417 480 17,700 1,440 Climbing Washington Center
01:27PM 36.4606 -78.2417 37° Northeast 422 486 19,300 1,680 Climbing Washington Center
01:28PM 36.5542 -78.1569 36° Northeast 422 486 21,200 1,440 Climbing Washington Center
01:29PM 36.6353 -78.0742 39° Northeast 417 480 22,200 960 Climbing Washington Center
01:30PM 36.7289 -77.9892 36° Northeast 412 474 23,200 900 Climbing Washington Center
01:31PM 36.8247 -77.8883 40° Northeast 430 495 24,100 900 Climbing Washington Center
01:32PM 36.9125 -77.7608 49° Northeast 450 518 25,100 960 Climbing Washington Center
01:33PM 36.9983 -77.6281 51° Northeast 475 547 26,100 960 Climbing Washington Center
01:34PM 37.0839 -77.4950 51° Northeast 488 562 27,100 960 Climbing Washington Center
01:35PM 37.1819 -77.3722 45° Northeast 493 567 28,100 960 Climbing Washington Center
01:36PM 37.2981 -77.2733 34° Northeast 498 573 29,100 960 Climbing Washington Center
01:37PM 37.4142 -77.1739 34° Northeast 498 573 30,100 1,020 Climbing Washington Center
01:38PM 37.5342 -77.0689 35° Northeast 511 588 31,200 1,020 Climbing Washington Center
01:39PM 37.6503 -76.9689 34° Northeast 516 594 32,200 960 Climbing Washington Center
01:40PM 37.7619 -76.8683 35° Northeast 510 587 33,200 960 Climbing Washington Center
01:41PM 37.8775 -76.7650 35° Northeast 505 581 34,200 840 Climbing Washington Center
01:42PM 37.9911 -76.6642 35° Northeast 500 575 35,000 360 Climbing Washington Center
01:43PM 38.1089 -76.5603 35° Northeast 500 575 35,000  Level Washington Center
01:44PM 38.2222 -76.4561 36° Northeast 500 575 35,000  Level Washington Center
01:45PM 38.3439 -76.3489 35° Northeast 495 570 35,000  Level Washington Center
01:46PM 38.4592 -76.2414 36° Northeast 501 577 35,000 -540 Level Washington Center
01:47PM 38.5597 -76.1386 39° Northeast 501 577 34,000 -1,740 Descending Washington Center
01:48PM 38.6789 -76.0411 33° Northeast 506 582 31,600 -2,340 Descending Washington Center
01:49PM 38.7919 -75.9325 37° Northeast 506 582 29,400 -2,100 Descending Washington Center
01:50PM 38.9069 -75.8292 35° Northeast 506 582 27,500 -1,620 Descending Washington Center
01:51PM 39.0133 -75.7253 37° Northeast 495 570 26,300 -1,200 Descending Washington Center
01:52PM 39.1175 -75.6292 36° Northeast 481 554 25,200 -1,080 Descending Washington Center
01:53PM 39.2217 -75.5300 36° Northeast 469 540 24,200 -1,200 Descending Washington Center
01:54PM 39.3258 -75.4358 35° Northeast 458 527 22,900 -1,440 Descending Washington Center
01:55PM 39.4300 -75.3417 35° Northeast 453 521 21,400 -1,500 Descending Washington Center
01:56PM 39.5275 -75.2553 34° Northeast 443 510 19,900 -1,680 Descending Washington Center
01:57PM 39.6189 -75.1686 36° Northeast 432 497 18,100 -1,800 Descending Washington Center
01:58PM 39.7186 -75.0789 35° Northeast 402 463 16,400 -1,800 Descending Washington Center
01:59PM 39.8058 -75.0056 33° Northeast 382 440 14,500 -1,800 Descending Washington Center
02:00PM 39.8847 -74.9372 34° Northeast 371 427 12,800 -1,860 Descending Washington Center
02:01PM 39.9500 -74.8667 40° Northeast 364 419 11,400 -1,560 Descending New York TRACON
02:02PM 40.0167 -74.7667 49° Northeast 357 411 10,100 -720 Descending New York TRACON
02:03PM 40.0833 -74.6667 49° Northeast 355 409 10,000 -60 Descending New York TRACON
02:04PM 40.1500 -74.5833 44° Northeast 341 392 10,000 -120 Level New York TRACON
02:05PM 40.2000 -74.5000 52° Northeast 289 333 9,800 -900 Descending New York TRACON
02:06PM 40.2500 -74.4333 45° Northeast 305 351 8,400 -1,440 Descending New York TRACON
02:07PM 40.3167 -74.3500 44° Northeast 303 349 7,100 -720 Descending New York TRACON
02:08PM 40.3833 -74.2833 37° Northeast 295 339 7,000 -60 Descending New York TRACON
02:09PM 40.4333 -74.2000 52° Northeast 294 338 7,000 -720 Level New York TRACON
02:10PM 40.5000 -74.1167 44° Northeast 296 341 5,600 -1,200 Descending New York TRACON
02:11PM 40.5667 -74.0667 30° Northeast 286 329 4,600 -840 Descending New York TRACON
02:12PM 40.6500 -74.0667 360° North 277 319 4,000 -360 Descending New York TRACON
02:13PM 40.7000 -74.0500 14° North 244 281 4,000  Level New York TRACON
02:14PM 40.7667 -74.0000 30° Northeast 255 293 4,000  Level New York TRACON
02:15PM 40.8167 -73.9833 14° North 215 247 4,000  Level New York TRACON
02:16PM 40.8833 -73.9500 21° North 206 237 4,000  Level New York TRACON
02:17PM 40.9333 -73.9167 27° Northeast 210 242 4,000 -120 Level New York TRACON
02:18PM 40.9667 -73.8500 56° Northeast 209 241 3,800 -540 Descending New York TRACON
02:19PM 40.9833 -73.8000 66° East 186 214 3,000 -420 Descending New York TRACON
02:20PM 40.9667 -73.7500 114° Southeast 180 207 3,000  Level New York TRACON